KBPT/BPT METAR and TAF weather

Enter ICAO airport designator
Station Type Date Time Source
KBPT METAR 2019/12/13 22:21 UTC NOAA

KBPT 132221Z 15007KT 10SM BKN019 21/17 A2977 RMK AO2 T02110167


Station Type Date Time Source
KBPT Decoded METAR 2019/12/13 22:21 UTC NOAA

SOUTHEAST TEXAS RGNL AIRPORT, TX, United States (KBPT) 29-95N 094-08W 5M
Dec 13, 2019 - 05:21 PM EST / 2019.12.13 2221 UTC
Wind: from the SSE (150 degrees) at 8 MPH (7 KT):0
Visibility: 10 mile(s):0
Sky conditions: mostly cloudy
Temperature: 70.0 F (21.1 C)
Dew Point: 62.1 F (16.7 C)
Relative Humidity: 75%
Pressure (altimeter): 29.77 in. Hg (1008 hPa)
ob: KBPT 132221Z 15007KT 10SM BKN019 21/17 A2977 RMK AO2 T02110167
cycle: 22

Station Type Date Time Source
KBPT TAF 2019/12/13 21:30 UTC NOAA

TAF
AMD KBPT 132129Z 1321/1418 18006KT P6SM SCT030
FM140200 VRB03KT P6SM FEW028 SCT060 BKN100
FM140500 VRB03KT P6SM FEW070 SCT120
TEMPO 1409/1413 4SM BR SCT002
FM141500 31005KT P6SM FEW005 SCT100

Example: see airport list